EZY27A EINN-LPPR
Flight info
| Callsign | EZY27A |
|---|---|
| Flight time | 1h 50m |
| Altitude | 39000 |
| Route | KURUM3B KURUM DCT MAPAG DCT TULTA/N0466F390 DCT KORUL DCT ELTEP/N0378F230 T328 ASPOR |
| Aircraft | A339/H-SADE1E2E3GHIJ3J5M1P2RWXY/LB2D1 |
Departure
| Time | 2026-05-06 22:47 |
|---|---|
| Airport | Shannon Airport (EINN) |
Arrival
| Time | 2026-05-07 00:37 |
|---|---|
| Airport | Francisco de Sá Carneiro Airport (LPPR) |
| Time | Latitude | Longitude | Altitude | Speed | Heading |
|---|---|---|---|---|---|
| 2026-05-06 22:31 | 52.69401 | -8.92529 | 50 ft | 0 kts | 186° |
| 2026-05-06 22:35 | 52.69403 | -8.92528 | 50 ft | 4 kts | 186° |
| 2026-05-06 22:36 | 52.69419 | -8.92526 | 46 ft | 0 kts | 186° |
| 2026-05-06 22:36 | 52.69440 | -8.92521 | 45 ft | 4 kts | 206° |
| 2026-05-06 22:36 | 52.69463 | -8.92496 | 42 ft | 4 kts | 236° |
| 2026-05-06 22:37 | 52.69477 | -8.92456 | 45 ft | 4 kts | 257° |
| 2026-05-06 22:37 | 52.69479 | -8.92411 | 43 ft | 4 kts | 271° |
| 2026-05-06 22:37 | 52.69481 | -8.92365 | 42 ft | 4 kts | 244° |
| 2026-05-06 22:37 | 52.69495 | -8.92325 | 45 ft | 4 kts | 210° |
| 2026-05-06 22:38 | 52.69522 | -8.92310 | 43 ft | 4 kts | 141° |
| 2026-05-06 22:38 | 52.69511 | -8.92282 | 41 ft | 0 kts | 124° |
| 2026-05-06 22:39 | 52.69511 | -8.92280 | 41 ft | 2 kts | 123° |
| 2026-05-06 22:39 | 52.69488 | -8.92186 | 48 ft | 16 kts | 109° |
| 2026-05-06 22:40 | 52.69454 | -8.91968 | 47 ft | 23 kts | 102° |
| 2026-05-06 22:40 | 52.69375 | -8.91759 | 46 ft | 21 kts | 156° |
| 2026-05-06 22:40 | 52.69273 | -8.91647 | 46 ft | 19 kts | 129° |
| 2026-05-06 22:40 | 52.69263 | -8.91534 | 46 ft | 8 kts | 59° |
| 2026-05-06 22:41 | 52.69432 | -8.91436 | 44 ft | 20 kts | 19° |
| 2026-05-06 22:41 | 52.69585 | -8.91351 | 43 ft | 26 kts | 19° |
| 2026-05-06 22:41 | 52.69776 | -8.91240 | 41 ft | 32 kts | 20° |
| 2026-05-06 22:42 | 52.70003 | -8.91116 | 39 ft | 37 kts | 18° |
| 2026-05-06 22:42 | 52.70260 | -8.90975 | 36 ft | 41 kts | 18° |
| 2026-05-06 22:42 | 52.70537 | -8.90822 | 33 ft | 44 kts | 18° |
| 2026-05-06 22:42 | 52.70798 | -8.90678 | 31 ft | 37 kts | 16° |
| 2026-05-06 22:43 | 52.70896 | -8.90701 | 30 ft | 2 kts | 324° |
| 2026-05-06 22:43 | 52.70897 | -8.90702 | 30 ft | 0 kts | 323° |
| 2026-05-06 22:45 | 52.70903 | -8.90709 | 30 ft | 4 kts | 323° |
| 2026-05-06 22:45 | 52.70947 | -8.90764 | 30 ft | 12 kts | 321° |
| 2026-05-06 22:45 | 52.70943 | -8.90890 | 30 ft | 12 kts | 232° |
| 2026-05-06 22:46 | 52.70940 | -8.90897 | 30 ft | 0 kts | 232° |
| 2026-05-06 22:46 | 52.70925 | -8.90929 | 30 ft | 11 kts | 232° |
| 2026-05-06 22:46 | 52.70728 | -8.91344 | 34 ft | 97 kts | 232° |
| 2026-05-06 22:47 | 52.70145 | -8.92577 | 229 ft | 161 kts | 232° |
| 2026-05-06 22:47 | 52.69401 | -8.94022 | 1123 ft | 173 kts | 231° |
| 2026-05-06 22:47 | 52.68534 | -8.95527 | 2040 ft | 185 kts | 225° |
| 2026-05-06 22:47 | 52.67588 | -8.97029 | 2917 ft | 193 kts | 220° |
| 2026-05-06 22:48 | 52.66341 | -8.97850 | 3798 ft | 197 kts | 185° |
| 2026-05-06 22:48 | 52.64988 | -8.97503 | 4681 ft | 200 kts | 161° |
| 2026-05-06 22:48 | 52.63725 | -8.96529 | 5776 ft | 200 kts | 153° |
| 2026-05-06 22:48 | 52.62508 | -8.95440 | 6941 ft | 199 kts | 153° |
| 2026-05-06 22:49 | 52.61252 | -8.94391 | 7933 ft | 205 kts | 155° |
| 2026-05-06 22:49 | 52.59937 | -8.93410 | 8985 ft | 210 kts | 157° |
| 2026-05-06 22:49 | 52.58572 | -8.92454 | 9903 ft | 222 kts | 156° |
| 2026-05-06 22:49 | 52.57109 | -8.91402 | 10463 ft | 243 kts | 156° |
| 2026-05-06 22:50 | 52.55496 | -8.90217 | 10913 ft | 265 kts | 156° |
| 2026-05-06 22:50 | 52.53735 | -8.88915 | 11323 ft | 288 kts | 156° |
| 2026-05-06 22:50 | 52.51859 | -8.87532 | 11955 ft | 299 kts | 156° |
| 2026-05-06 22:50 | 52.49945 | -8.86124 | 12841 ft | 303 kts | 156° |
| 2026-05-06 22:51 | 52.47998 | -8.84699 | 13700 ft | 308 kts | 156° |
| 2026-05-06 22:51 | 52.46029 | -8.83263 | 14507 ft | 311 kts | 156° |
| 2026-05-06 22:51 | 52.44039 | -8.81817 | 15300 ft | 315 kts | 157° |
| 2026-05-06 22:51 | 52.42708 | -8.80849 | 15822 ft | 317 kts | 157° |
| 2026-05-06 22:52 | 52.40676 | -8.79371 | 16604 ft | 321 kts | 157° |
| 2026-05-06 22:52 | 52.38620 | -8.77874 | 17389 ft | 325 kts | 157° |
| 2026-05-06 22:52 | 52.35859 | -8.75865 | 18408 ft | 331 kts | 157° |
| 2026-05-06 22:52 | 52.33745 | -8.74329 | 19076 ft | 335 kts | 157° |
| 2026-05-06 22:53 | 52.32297 | -8.73277 | 19533 ft | 337 kts | 157° |
| 2026-05-06 22:53 | 52.30142 | -8.71713 | 20214 ft | 341 kts | 157° |
| 2026-05-06 22:53 | 52.27992 | -8.70154 | 20882 ft | 344 kts | 157° |
| 2026-05-06 22:53 | 52.25782 | -8.68554 | 21559 ft | 348 kts | 157° |
| 2026-05-06 22:54 | 52.23521 | -8.67089 | 22204 ft | 351 kts | 163° |
| 2026-05-06 22:54 | 52.21130 | -8.66175 | 22865 ft | 354 kts | 173° |
| 2026-05-06 22:54 | 52.18669 | -8.65801 | 23433 ft | 360 kts | 178° |
| 2026-05-06 22:54 | 52.16108 | -8.65501 | 23605 ft | 377 kts | 177° |
| 2026-05-06 22:55 | 52.13440 | -8.65165 | 23748 ft | 393 kts | 177° |
| 2026-05-06 22:55 | 52.10657 | -8.64796 | 23897 ft | 409 kts | 177° |
| 2026-05-06 22:55 | 52.07790 | -8.64405 | 24305 ft | 416 kts | 176° |
| 2026-05-06 22:55 | 52.04900 | -8.64006 | 24883 ft | 418 kts | 176° |
| 2026-05-06 22:56 | 52.02027 | -8.63610 | 25419 ft | 421 kts | 176° |
| 2026-05-06 22:56 | 51.99096 | -8.63209 | 25953 ft | 425 kts | 177° |
| 2026-05-06 22:56 | 51.96138 | -8.62806 | 26479 ft | 428 kts | 177° |
| 2026-05-06 22:56 | 51.93161 | -8.62401 | 27024 ft | 431 kts | 177° |
| 2026-05-06 22:57 | 51.90159 | -8.61994 | 27511 ft | 434 kts | 177° |
| 2026-05-06 22:57 | 51.87136 | -8.61584 | 28008 ft | 438 kts | 177° |
| 2026-05-06 22:57 | 51.84087 | -8.61172 | 28498 ft | 441 kts | 177° |
| 2026-05-06 22:57 | 51.81016 | -8.60756 | 28974 ft | 444 kts | 177° |
| 2026-05-06 22:58 | 51.77920 | -8.60338 | 29450 ft | 448 kts | 177° |
| 2026-05-06 22:58 | 51.74805 | -8.59918 | 29919 ft | 451 kts | 177° |
| 2026-05-06 22:58 | 51.71666 | -8.59495 | 30344 ft | 454 kts | 177° |
| 2026-05-06 22:58 | 51.68509 | -8.59071 | 30789 ft | 456 kts | 177° |
| 2026-05-06 22:59 | 51.65335 | -8.58646 | 31223 ft | 459 kts | 177° |
| 2026-05-06 22:59 | 51.62136 | -8.58217 | 31637 ft | 462 kts | 177° |
| 2026-05-06 22:59 | 51.58964 | -8.57792 | 32053 ft | 464 kts | 177° |
| 2026-05-06 22:59 | 51.55733 | -8.57360 | 32452 ft | 467 kts | 177° |
| 2026-05-06 23:00 | 51.52486 | -8.56927 | 32782 ft | 469 kts | 176° |
| 2026-05-06 23:00 | 51.49212 | -8.56494 | 33068 ft | 472 kts | 177° |
| 2026-05-06 23:00 | 51.45932 | -8.56057 | 33325 ft | 474 kts | 177° |
| 2026-05-06 23:00 | 51.42633 | -8.55617 | 33567 ft | 475 kts | 176° |
| 2026-05-06 23:01 | 51.39336 | -8.55178 | 33855 ft | 475 kts | 176° |
| 2026-05-06 23:01 | 51.36044 | -8.54741 | 34135 ft | 475 kts | 176° |
| 2026-05-06 23:01 | 51.32794 | -8.54310 | 34351 ft | 475 kts | 176° |
| 2026-05-06 23:01 | 51.29490 | -8.53873 | 34585 ft | 475 kts | 176° |
| 2026-05-06 23:02 | 51.26196 | -8.53439 | 34816 ft | 475 kts | 176° |
| 2026-05-06 23:02 | 51.22901 | -8.53005 | 35058 ft | 475 kts | 176° |
| 2026-05-06 23:02 | 51.19604 | -8.52571 | 35290 ft | 475 kts | 176° |
| 2026-05-06 23:02 | 51.16303 | -8.52137 | 35524 ft | 476 kts | 176° |
| 2026-05-06 23:03 | 51.13007 | -8.51704 | 35762 ft | 475 kts | 176° |
| 2026-05-06 23:03 | 51.09710 | -8.51272 | 36000 ft | 475 kts | 176° |
| 2026-05-06 23:03 | 51.06411 | -8.50841 | 36232 ft | 476 kts | 176° |
| 2026-05-06 23:03 | 51.03115 | -8.50410 | 36461 ft | 476 kts | 176° |
| 2026-05-06 23:04 | 50.99807 | -8.49978 | 36698 ft | 476 kts | 176° |
| 2026-05-06 23:04 | 50.96515 | -8.49430 | 36934 ft | 476 kts | 174° |
| 2026-05-06 23:04 | 50.93224 | -8.48692 | 37163 ft | 476 kts | 173° |
| 2026-05-06 23:04 | 50.89944 | -8.47917 | 37404 ft | 476 kts | 173° |
| 2026-05-06 23:05 | 50.86659 | -8.47155 | 37645 ft | 476 kts | 173° |
| 2026-05-06 23:05 | 50.83377 | -8.46418 | 37885 ft | 476 kts | 173° |
| 2026-05-06 23:05 | 50.80140 | -8.45709 | 38121 ft | 476 kts | 173° |
| 2026-05-06 23:05 | 50.76858 | -8.45000 | 38348 ft | 476 kts | 173° |
| 2026-05-06 23:06 | 50.73577 | -8.44296 | 38583 ft | 476 kts | 173° |
| 2026-05-06 23:06 | 50.70294 | -8.43593 | 38792 ft | 476 kts | 173° |
| 2026-05-06 23:06 | 50.67007 | -8.42890 | 38953 ft | 476 kts | 173° |
| 2026-05-06 23:07 | 50.60447 | -8.41488 | 39008 ft | 475 kts | 173° |
| 2026-05-06 23:07 | 50.53884 | -8.40090 | 39009 ft | 475 kts | 173° |
| 2026-05-06 23:08 | 50.47330 | -8.38697 | 39014 ft | 475 kts | 173° |
| 2026-05-06 23:08 | 50.40815 | -8.37316 | 39017 ft | 475 kts | 173° |
| 2026-05-06 23:09 | 50.34266 | -8.35932 | 39015 ft | 475 kts | 173° |
| 2026-05-06 23:09 | 50.27699 | -8.34547 | 39014 ft | 475 kts | 173° |
| 2026-05-06 23:10 | 50.21134 | -8.33168 | 39015 ft | 475 kts | 173° |
| 2026-05-06 23:10 | 50.14617 | -8.31802 | 39019 ft | 475 kts | 173° |
| 2026-05-06 23:11 | 50.08063 | -8.30433 | 39021 ft | 475 kts | 173° |
| 2026-05-06 23:11 | 50.01499 | -8.29064 | 39017 ft | 475 kts | 173° |
| 2026-05-06 23:12 | 49.94929 | -8.27698 | 39022 ft | 475 kts | 173° |
| 2026-05-06 23:12 | 49.88366 | -8.26338 | 39019 ft | 475 kts | 173° |
| 2026-05-06 23:13 | 49.81853 | -8.24991 | 39020 ft | 475 kts | 173° |
| 2026-05-06 23:13 | 49.75294 | -8.23639 | 39020 ft | 475 kts | 173° |
| 2026-05-06 23:14 | 49.68723 | -8.22288 | 39019 ft | 476 kts | 173° |
| 2026-05-06 23:14 | 49.62146 | -8.20939 | 39021 ft | 476 kts | 173° |
| 2026-05-06 23:15 | 49.55619 | -8.19605 | 39029 ft | 476 kts | 173° |
| 2026-05-06 23:15 | 49.49040 | -8.18263 | 39024 ft | 476 kts | 173° |
| 2026-05-06 23:16 | 49.42472 | -8.16928 | 39027 ft | 476 kts | 173° |
| 2026-05-06 23:16 | 49.35894 | -8.15593 | 39028 ft | 476 kts | 173° |
| 2026-05-06 23:17 | 49.29315 | -8.14262 | 39026 ft | 476 kts | 173° |
| 2026-05-06 23:17 | 49.22773 | -8.12943 | 39024 ft | 476 kts | 173° |
| 2026-05-06 23:18 | 49.16194 | -8.11619 | 39029 ft | 477 kts | 173° |
| 2026-05-06 23:18 | 49.09608 | -8.10298 | 39030 ft | 477 kts | 173° |
| 2026-05-06 23:19 | 49.03036 | -8.08983 | 39025 ft | 477 kts | 173° |
| 2026-05-06 23:19 | 48.96493 | -8.07677 | 39029 ft | 477 kts | 173° |
| 2026-05-06 23:20 | 48.89906 | -8.06366 | 39034 ft | 477 kts | 173° |
| 2026-05-06 23:20 | 48.83325 | -8.05059 | 39035 ft | 477 kts | 173° |
| 2026-05-06 23:21 | 48.76760 | -8.03762 | 39034 ft | 472 kts | 173° |
| 2026-05-06 23:21 | 48.70249 | -8.02475 | 39033 ft | 473 kts | 173° |
| 2026-05-06 23:22 | 48.63712 | -8.01186 | 39028 ft | 473 kts | 173° |
| 2026-05-06 23:22 | 48.57194 | -7.99860 | 39031 ft | 473 kts | 171° |
| 2026-05-06 23:23 | 48.50761 | -7.97892 | 39029 ft | 473 kts | 168° |
| 2026-05-06 23:23 | 48.44312 | -7.95873 | 39029 ft | 473 kts | 169° |
| 2026-05-06 23:24 | 48.37855 | -7.93876 | 39029 ft | 473 kts | 169° |
| 2026-05-06 23:24 | 48.31439 | -7.91903 | 39030 ft | 473 kts | 169° |
| 2026-05-06 23:25 | 48.24984 | -7.89925 | 39030 ft | 473 kts | 169° |
| 2026-05-06 23:25 | 48.18512 | -7.87946 | 39029 ft | 473 kts | 169° |
| 2026-05-06 23:26 | 48.12090 | -7.85989 | 39030 ft | 473 kts | 169° |
| 2026-05-06 23:26 | 48.05633 | -7.84025 | 39033 ft | 473 kts | 169° |
| 2026-05-06 23:27 | 47.99202 | -7.82074 | 39034 ft | 473 kts | 169° |
| 2026-05-06 23:27 | 47.92729 | -7.80116 | 39028 ft | 473 kts | 169° |
| 2026-05-06 23:28 | 47.86270 | -7.78167 | 39025 ft | 473 kts | 169° |
| 2026-05-06 23:28 | 47.79816 | -7.76224 | 39037 ft | 473 kts | 169° |
| 2026-05-06 23:29 | 47.73351 | -7.74283 | 39027 ft | 473 kts | 169° |
| 2026-05-06 23:29 | 47.66924 | -7.72358 | 39035 ft | 473 kts | 169° |
| 2026-05-06 23:30 | 47.60470 | -7.70430 | 39032 ft | 473 kts | 169° |
| 2026-05-06 23:30 | 47.53998 | -7.68502 | 39029 ft | 473 kts | 169° |
| 2026-05-06 23:31 | 47.47537 | -7.66581 | 39031 ft | 473 kts | 169° |
| 2026-05-06 23:31 | 47.41119 | -7.64678 | 39034 ft | 473 kts | 169° |
| 2026-05-06 23:32 | 47.34657 | -7.62767 | 39028 ft | 473 kts | 169° |
| 2026-05-06 23:32 | 47.28186 | -7.60858 | 39031 ft | 473 kts | 169° |
| 2026-05-06 23:33 | 47.21735 | -7.58960 | 39036 ft | 473 kts | 169° |
| 2026-05-06 23:33 | 47.15322 | -7.57077 | 39032 ft | 472 kts | 169° |
| 2026-05-06 23:34 | 47.08861 | -7.55185 | 39035 ft | 472 kts | 169° |
| 2026-05-06 23:34 | 47.02398 | -7.53297 | 39037 ft | 472 kts | 169° |
| 2026-05-06 23:35 | 46.95951 | -7.51419 | 39037 ft | 472 kts | 170° |
| 2026-05-06 23:35 | 46.89502 | -7.49544 | 39038 ft | 472 kts | 170° |
| 2026-05-06 23:36 | 46.83099 | -7.47687 | 39032 ft | 472 kts | 170° |
| 2026-05-06 23:36 | 46.76652 | -7.45822 | 39035 ft | 472 kts | 170° |
| 2026-05-06 23:37 | 46.70199 | -7.43960 | 39038 ft | 472 kts | 170° |
| 2026-05-06 23:37 | 46.63748 | -7.42103 | 39036 ft | 472 kts | 170° |
| 2026-05-06 23:38 | 46.57299 | -7.40251 | 39038 ft | 472 kts | 170° |
| 2026-05-06 23:38 | 46.50899 | -7.38418 | 39038 ft | 472 kts | 170° |
| 2026-05-06 23:39 | 46.44456 | -7.36577 | 39039 ft | 472 kts | 170° |
| 2026-05-06 23:39 | 46.37997 | -7.34736 | 39040 ft | 472 kts | 170° |
| 2026-05-06 23:40 | 46.32639 | -7.33211 | 39035 ft | 472 kts | 170° |
| 2026-05-06 23:40 | 46.26196 | -7.31382 | 39035 ft | 472 kts | 170° |
| 2026-05-06 23:41 | 46.19750 | -7.29557 | 39031 ft | 472 kts | 170° |
| 2026-05-06 23:41 | 46.13306 | -7.27737 | 39034 ft | 472 kts | 170° |
| 2026-05-06 23:42 | 46.06858 | -7.25920 | 39031 ft | 472 kts | 170° |
| 2026-05-06 23:42 | 46.00411 | -7.24108 | 39033 ft | 472 kts | 170° |
| 2026-05-06 23:43 | 45.93964 | -7.22300 | 39030 ft | 472 kts | 170° |
| 2026-05-06 23:43 | 45.87544 | -7.20503 | 39037 ft | 471 kts | 170° |
| 2026-05-06 23:44 | 45.81092 | -7.18702 | 39037 ft | 471 kts | 170° |
| 2026-05-06 23:44 | 45.74652 | -7.16909 | 39034 ft | 471 kts | 170° |
| 2026-05-06 23:45 | 45.68250 | -7.15130 | 39033 ft | 471 kts | 170° |
| 2026-05-06 23:45 | 45.61807 | -7.13344 | 39031 ft | 471 kts | 170° |
| 2026-05-06 23:46 | 45.55380 | -7.11567 | 38792 ft | 467 kts | 170° |
| 2026-05-06 23:46 | 45.52197 | -7.10688 | 38204 ft | 464 kts | 170° |
| 2026-05-06 23:46 | 45.49024 | -7.09813 | 37450 ft | 463 kts | 170° |
| 2026-05-06 23:46 | 45.45874 | -7.08946 | 36682 ft | 460 kts | 170° |
| 2026-05-06 23:47 | 45.42738 | -7.08083 | 35850 ft | 458 kts | 170° |
| 2026-05-06 23:47 | 45.39621 | -7.07227 | 35021 ft | 456 kts | 170° |
| 2026-05-06 23:47 | 45.36513 | -7.06375 | 34184 ft | 454 kts | 170° |
| 2026-05-06 23:47 | 45.33456 | -7.05536 | 33159 ft | 453 kts | 170° |
| 2026-05-06 23:48 | 45.30347 | -7.04684 | 31953 ft | 455 kts | 170° |
| 2026-05-06 23:48 | 45.27224 | -7.03829 | 30958 ft | 457 kts | 170° |
| 2026-05-06 23:48 | 45.24107 | -7.02977 | 30456 ft | 456 kts | 170° |
| 2026-05-06 23:48 | 45.20993 | -7.02126 | 30196 ft | 455 kts | 170° |
| 2026-05-06 23:49 | 45.17880 | -7.01277 | 30058 ft | 455 kts | 170° |
| 2026-05-06 23:49 | 45.11662 | -6.99585 | 30028 ft | 455 kts | 170° |
| 2026-05-06 23:50 | 45.05445 | -6.97897 | 30032 ft | 455 kts | 170° |
| 2026-05-06 23:50 | 44.96165 | -6.95382 | 30025 ft | 454 kts | 170° |
| 2026-05-06 23:51 | 44.89943 | -6.93701 | 30024 ft | 454 kts | 170° |
| 2026-05-06 23:51 | 44.83684 | -6.92752 | 30022 ft | 452 kts | 182° |
| 2026-05-06 23:52 | 44.77527 | -6.94321 | 30022 ft | 449 kts | 197° |
| 2026-05-06 23:52 | 44.71515 | -6.96816 | 30022 ft | 450 kts | 197° |
| 2026-05-06 23:53 | 44.65527 | -6.99240 | 30016 ft | 450 kts | 197° |
| 2026-05-06 23:53 | 44.59507 | -7.01657 | 30014 ft | 449 kts | 197° |
| 2026-05-06 23:54 | 44.53486 | -7.04070 | 30018 ft | 449 kts | 197° |
| 2026-05-06 23:54 | 44.47482 | -7.06471 | 30012 ft | 448 kts | 197° |
| 2026-05-06 23:55 | 44.41517 | -7.08853 | 30014 ft | 448 kts | 197° |
| 2026-05-06 23:55 | 44.35524 | -7.11240 | 30008 ft | 448 kts | 197° |
| 2026-05-06 23:56 | 44.29534 | -7.13621 | 30009 ft | 448 kts | 196° |
| 2026-05-06 23:56 | 44.23535 | -7.16000 | 30008 ft | 447 kts | 196° |
| 2026-05-06 23:57 | 44.17556 | -7.18367 | 29974 ft | 445 kts | 196° |
| 2026-05-06 23:57 | 44.14584 | -7.19541 | 29493 ft | 441 kts | 196° |
| 2026-05-06 23:57 | 44.11639 | -7.20703 | 28736 ft | 437 kts | 196° |
| 2026-05-06 23:58 | 44.08725 | -7.21852 | 27949 ft | 432 kts | 196° |
| 2026-05-06 23:58 | 44.05879 | -7.22973 | 27058 ft | 428 kts | 196° |
| 2026-05-06 23:58 | 44.03030 | -7.24094 | 26190 ft | 423 kts | 196° |
| 2026-05-06 23:58 | 44.00208 | -7.25203 | 25474 ft | 417 kts | 196° |
| 2026-05-06 23:59 | 43.97420 | -7.26297 | 25155 ft | 417 kts | 196° |
| 2026-05-06 23:59 | 43.94619 | -7.27397 | 25024 ft | 419 kts | 196° |
| 2026-05-06 23:59 | 43.91811 | -7.28498 | 25005 ft | 419 kts | 196° |
| 2026-05-06 23:59 | 43.89004 | -7.29598 | 25007 ft | 419 kts | 196° |
| 2026-05-07 00:00 | 43.86199 | -7.30696 | 24999 ft | 419 kts | 196° |
| 2026-05-07 00:00 | 43.83392 | -7.31793 | 25005 ft | 419 kts | 196° |
| 2026-05-07 00:00 | 43.80587 | -7.32888 | 25000 ft | 419 kts | 196° |
| 2026-05-07 00:00 | 43.77784 | -7.33981 | 24975 ft | 416 kts | 196° |
| 2026-05-07 00:01 | 43.75009 | -7.35062 | 24540 ft | 413 kts | 196° |
| 2026-05-07 00:01 | 43.72247 | -7.36137 | 23883 ft | 411 kts | 196° |
| 2026-05-07 00:01 | 43.69505 | -7.37203 | 23102 ft | 407 kts | 196° |
| 2026-05-07 00:01 | 43.66799 | -7.38254 | 22183 ft | 401 kts | 196° |
| 2026-05-07 00:02 | 43.64126 | -7.39291 | 21272 ft | 396 kts | 196° |
| 2026-05-07 00:02 | 43.61488 | -7.40314 | 20498 ft | 390 kts | 196° |
| 2026-05-07 00:02 | 43.58912 | -7.41312 | 20165 ft | 391 kts | 196° |
| 2026-05-07 00:02 | 43.56291 | -7.42327 | 20029 ft | 391 kts | 196° |
| 2026-05-07 00:03 | 43.53664 | -7.43344 | 20002 ft | 391 kts | 196° |
| 2026-05-07 00:03 | 43.51047 | -7.44356 | 20007 ft | 391 kts | 196° |
| 2026-05-07 00:03 | 43.48423 | -7.45369 | 20004 ft | 391 kts | 196° |
| 2026-05-07 00:03 | 43.45804 | -7.46380 | 20007 ft | 391 kts | 196° |
| 2026-05-07 00:04 | 43.43189 | -7.47387 | 20009 ft | 391 kts | 196° |
| 2026-05-07 00:04 | 43.40562 | -7.48399 | 20008 ft | 391 kts | 196° |
| 2026-05-07 00:04 | 43.37943 | -7.49407 | 20010 ft | 391 kts | 196° |
| 2026-05-07 00:04 | 43.35356 | -7.50401 | 20006 ft | 391 kts | 196° |
| 2026-05-07 00:05 | 43.32725 | -7.51411 | 20010 ft | 391 kts | 196° |
| 2026-05-07 00:05 | 43.30107 | -7.52415 | 20002 ft | 391 kts | 196° |
| 2026-05-07 00:05 | 43.27486 | -7.53420 | 20007 ft | 391 kts | 196° |
| 2026-05-07 00:05 | 43.24866 | -7.54424 | 20009 ft | 391 kts | 196° |
| 2026-05-07 00:06 | 43.22248 | -7.55426 | 20005 ft | 390 kts | 196° |
| 2026-05-07 00:06 | 43.19633 | -7.56425 | 20004 ft | 391 kts | 196° |
| 2026-05-07 00:06 | 43.17015 | -7.57426 | 20003 ft | 391 kts | 196° |
| 2026-05-07 00:06 | 43.14393 | -7.58426 | 20003 ft | 391 kts | 196° |
| 2026-05-07 00:07 | 43.11770 | -7.59426 | 20008 ft | 391 kts | 196° |
| 2026-05-07 00:07 | 43.09152 | -7.60424 | 20009 ft | 391 kts | 196° |
| 2026-05-07 00:07 | 43.06532 | -7.61421 | 20005 ft | 391 kts | 195° |
| 2026-05-07 00:07 | 43.03913 | -7.62418 | 20005 ft | 391 kts | 195° |
| 2026-05-07 00:08 | 43.01295 | -7.63412 | 19884 ft | 388 kts | 195° |
| 2026-05-07 00:08 | 42.98687 | -7.64402 | 19135 ft | 391 kts | 195° |
| 2026-05-07 00:08 | 42.96041 | -7.65405 | 17910 ft | 400 kts | 195° |
| 2026-05-07 00:08 | 42.93400 | -7.66407 | 16794 ft | 397 kts | 195° |
| 2026-05-07 00:09 | 42.90759 | -7.67407 | 15713 ft | 390 kts | 195° |
| 2026-05-07 00:09 | 42.88158 | -7.68391 | 14657 ft | 384 kts | 195° |
| 2026-05-07 00:09 | 42.85598 | -7.69359 | 13589 ft | 378 kts | 195° |
| 2026-05-07 00:09 | 42.83084 | -7.70308 | 12514 ft | 371 kts | 195° |
| 2026-05-07 00:10 | 42.80623 | -7.71237 | 11650 ft | 361 kts | 195° |
| 2026-05-07 00:10 | 42.78271 | -7.72124 | 11244 ft | 339 kts | 195° |
| 2026-05-07 00:10 | 42.75987 | -7.72984 | 11068 ft | 342 kts | 195° |
| 2026-05-07 00:10 | 42.73704 | -7.73844 | 11001 ft | 340 kts | 195° |
| 2026-05-07 00:11 | 42.71449 | -7.74692 | 10995 ft | 341 kts | 195° |
| 2026-05-07 00:11 | 42.69167 | -7.75550 | 10993 ft | 341 kts | 195° |
| 2026-05-07 00:11 | 42.66882 | -7.76408 | 10992 ft | 341 kts | 195° |
| 2026-05-07 00:11 | 42.64592 | -7.77268 | 10992 ft | 341 kts | 195° |
| 2026-05-07 00:12 | 42.62301 | -7.78128 | 10990 ft | 341 kts | 195° |
| 2026-05-07 00:12 | 42.60014 | -7.78986 | 10986 ft | 341 kts | 195° |
| 2026-05-07 00:12 | 42.57726 | -7.79845 | 10988 ft | 341 kts | 195° |
| 2026-05-07 00:12 | 42.55437 | -7.80704 | 10988 ft | 341 kts | 195° |
| 2026-05-07 00:13 | 42.53177 | -7.81551 | 10987 ft | 340 kts | 195° |
| 2026-05-07 00:13 | 42.50893 | -7.82408 | 10986 ft | 341 kts | 195° |
| 2026-05-07 00:13 | 42.48604 | -7.83267 | 10983 ft | 341 kts | 195° |
| 2026-05-07 00:13 | 42.46307 | -7.84128 | 10986 ft | 341 kts | 195° |
| 2026-05-07 00:14 | 42.44017 | -7.84984 | 10984 ft | 341 kts | 195° |
| 2026-05-07 00:14 | 42.41731 | -7.85839 | 10982 ft | 341 kts | 195° |
| 2026-05-07 00:14 | 42.39447 | -7.86692 | 10981 ft | 341 kts | 195° |
| 2026-05-07 00:14 | 42.37186 | -7.87535 | 10980 ft | 341 kts | 195° |
| 2026-05-07 00:15 | 42.34893 | -7.88390 | 10985 ft | 341 kts | 195° |
| 2026-05-07 00:15 | 42.32608 | -7.89242 | 10982 ft | 341 kts | 195° |
| 2026-05-07 00:15 | 42.30324 | -7.90092 | 10981 ft | 340 kts | 195° |
| 2026-05-07 00:15 | 42.28038 | -7.90942 | 10981 ft | 341 kts | 195° |
| 2026-05-07 00:16 | 42.25749 | -7.91794 | 10980 ft | 341 kts | 195° |
| 2026-05-07 00:16 | 42.23461 | -7.92644 | 10980 ft | 341 kts | 195° |
| 2026-05-07 00:16 | 42.21170 | -7.93494 | 10977 ft | 341 kts | 195° |
| 2026-05-07 00:16 | 42.18882 | -7.94343 | 10979 ft | 341 kts | 195° |
| 2026-05-07 00:17 | 42.16594 | -7.95191 | 10974 ft | 341 kts | 195° |
| 2026-05-07 00:17 | 42.14338 | -7.96027 | 10971 ft | 341 kts | 195° |
| 2026-05-07 00:17 | 42.12051 | -7.96874 | 10973 ft | 341 kts | 195° |
| 2026-05-07 00:17 | 42.09763 | -7.97720 | 10973 ft | 341 kts | 195° |
| 2026-05-07 00:18 | 42.07480 | -7.98564 | 10973 ft | 341 kts | 195° |
| 2026-05-07 00:18 | 42.05193 | -7.99409 | 10977 ft | 341 kts | 195° |
| 2026-05-07 00:18 | 42.02905 | -8.00252 | 10972 ft | 341 kts | 195° |
| 2026-05-07 00:18 | 42.00619 | -8.01096 | 10974 ft | 340 kts | 195° |
| 2026-05-07 00:19 | 41.98334 | -8.01939 | 10972 ft | 340 kts | 195° |
| 2026-05-07 00:19 | 41.96049 | -8.02780 | 10973 ft | 341 kts | 195° |
| 2026-05-07 00:19 | 41.93760 | -8.03623 | 10970 ft | 340 kts | 195° |
| 2026-05-07 00:19 | 41.91498 | -8.04454 | 10973 ft | 340 kts | 195° |
| 2026-05-07 00:20 | 41.89215 | -8.05293 | 10972 ft | 340 kts | 195° |
| 2026-05-07 00:20 | 41.86930 | -8.06131 | 10973 ft | 340 kts | 195° |
| 2026-05-07 00:20 | 41.84643 | -8.06971 | 10971 ft | 340 kts | 195° |
| 2026-05-07 00:20 | 41.82453 | -8.08123 | 10822 ft | 340 kts | 209° |
| 2026-05-07 00:21 | 41.80654 | -8.10145 | 10607 ft | 340 kts | 228° |
| 2026-05-07 00:21 | 41.79376 | -8.12805 | 10398 ft | 336 kts | 239° |
| 2026-05-07 00:21 | 41.78262 | -8.15469 | 10263 ft | 319 kts | 239° |
| 2026-05-07 00:21 | 41.77202 | -8.17976 | 10075 ft | 297 kts | 238° |
| 2026-05-07 00:22 | 41.76214 | -8.20275 | 9607 ft | 283 kts | 238° |
| 2026-05-07 00:22 | 41.75232 | -8.22522 | 9172 ft | 274 kts | 237° |
| 2026-05-07 00:22 | 41.74253 | -8.24745 | 8986 ft | 279 kts | 238° |
| 2026-05-07 00:22 | 41.73293 | -8.26993 | 8847 ft | 277 kts | 238° |
| 2026-05-07 00:23 | 41.72348 | -8.29242 | 8716 ft | 277 kts | 238° |
| 2026-05-07 00:23 | 41.71409 | -8.31490 | 8582 ft | 277 kts | 238° |
| 2026-05-07 00:23 | 41.70468 | -8.33731 | 8459 ft | 276 kts | 238° |
| 2026-05-07 00:23 | 41.69524 | -8.35971 | 8326 ft | 276 kts | 238° |
| 2026-05-07 00:24 | 41.68580 | -8.38206 | 8196 ft | 276 kts | 238° |
| 2026-05-07 00:24 | 41.67637 | -8.40435 | 8076 ft | 275 kts | 238° |
| 2026-05-07 00:24 | 41.66694 | -8.42664 | 7933 ft | 275 kts | 238° |
| 2026-05-07 00:24 | 41.65752 | -8.44888 | 7816 ft | 275 kts | 238° |
| 2026-05-07 00:25 | 41.64809 | -8.47109 | 7605 ft | 274 kts | 238° |
| 2026-05-07 00:25 | 41.63872 | -8.49315 | 7244 ft | 270 kts | 238° |
| 2026-05-07 00:25 | 41.62946 | -8.51499 | 7027 ft | 272 kts | 238° |
| 2026-05-07 00:25 | 41.62340 | -8.52928 | 6963 ft | 259 kts | 238° |
| 2026-05-07 00:26 | 41.61245 | -8.55515 | 6941 ft | 225 kts | 238° |
| 2026-05-07 00:26 | 41.60509 | -8.57253 | 6940 ft | 206 kts | 238° |
| 2026-05-07 00:26 | 41.59806 | -8.58901 | 6948 ft | 205 kts | 238° |
| 2026-05-07 00:26 | 41.59300 | -8.59970 | 6916 ft | 204 kts | 234° |
| 2026-05-07 00:27 | 41.58547 | -8.61504 | 6867 ft | 190 kts | 234° |
| 2026-05-07 00:27 | 41.57846 | -8.62934 | 6780 ft | 177 kts | 234° |
| 2026-05-07 00:27 | 41.56993 | -8.64682 | 6673 ft | 162 kts | 234° |
| 2026-05-07 00:27 | 41.56586 | -8.65518 | 6603 ft | 156 kts | 234° |
| 2026-05-07 00:28 | 41.56007 | -8.66706 | 6411 ft | 154 kts | 234° |
| 2026-05-07 00:28 | 41.55423 | -8.67907 | 6187 ft | 154 kts | 234° |
| 2026-05-07 00:28 | 41.54843 | -8.69101 | 6000 ft | 151 kts | 234° |
| 2026-05-07 00:28 | 41.54292 | -8.70240 | 5746 ft | 148 kts | 234° |
| 2026-05-07 00:29 | 41.53724 | -8.71405 | 5448 ft | 152 kts | 234° |
| 2026-05-07 00:29 | 41.53153 | -8.72570 | 5268 ft | 144 kts | 235° |
| 2026-05-07 00:30 | 41.51156 | -8.75240 | 4270 ft | 141 kts | 181° |
| 2026-05-07 00:30 | 41.50207 | -8.74985 | 3975 ft | 139 kts | 162° |
| 2026-05-07 00:30 | 41.49270 | -8.74638 | 3656 ft | 140 kts | 163° |
| 2026-05-07 00:30 | 41.48310 | -8.74310 | 3291 ft | 146 kts | 165° |
| 2026-05-07 00:31 | 41.47327 | -8.74048 | 3223 ft | 151 kts | 169° |
| 2026-05-07 00:31 | 41.46296 | -8.73796 | 3166 ft | 148 kts | 167° |
| 2026-05-07 00:31 | 41.45279 | -8.73524 | 3123 ft | 152 kts | 167° |
| 2026-05-07 00:31 | 41.44244 | -8.73251 | 3081 ft | 150 kts | 167° |
| 2026-05-07 00:32 | 41.43211 | -8.72979 | 3024 ft | 149 kts | 167° |
| 2026-05-07 00:32 | 41.42196 | -8.72711 | 2978 ft | 151 kts | 168° |
| 2026-05-07 00:32 | 41.41168 | -8.72439 | 2878 ft | 149 kts | 168° |
| 2026-05-07 00:32 | 41.40139 | -8.72168 | 2733 ft | 151 kts | 168° |
| 2026-05-07 00:33 | 41.39120 | -8.71899 | 2563 ft | 149 kts | 167° |
| 2026-05-07 00:33 | 41.38103 | -8.71631 | 2408 ft | 149 kts | 168° |
| 2026-05-07 00:33 | 41.37082 | -8.71361 | 2231 ft | 148 kts | 168° |
| 2026-05-07 00:33 | 41.36071 | -8.71093 | 2051 ft | 152 kts | 167° |
| 2026-05-07 00:34 | 41.35052 | -8.70824 | 1844 ft | 148 kts | 168° |
| 2026-05-07 00:34 | 41.34017 | -8.70557 | 1670 ft | 151 kts | 168° |
| 2026-05-07 00:34 | 41.32986 | -8.70278 | 1506 ft | 152 kts | 168° |
| 2026-05-07 00:34 | 41.31955 | -8.70005 | 1322 ft | 149 kts | 169° |
| 2026-05-07 00:35 | 41.30925 | -8.69766 | 1131 ft | 150 kts | 169° |
| 2026-05-07 00:35 | 41.29920 | -8.69481 | 931 ft | 145 kts | 167° |
| 2026-05-07 00:35 | 41.28946 | -8.69194 | 781 ft | 145 kts | 167° |
| 2026-05-07 00:35 | 41.27960 | -8.68942 | 592 ft | 146 kts | 169° |
| 2026-05-07 00:36 | 41.26988 | -8.68687 | 377 ft | 142 kts | 168° |
| 2026-05-07 00:36 | 41.26023 | -8.68434 | 213 ft | 140 kts | 168° |
| 2026-05-07 00:36 | 41.25081 | -8.68192 | 195 ft | 120 kts | 169° |
| 2026-05-07 00:36 | 41.24467 | -8.68029 | 221 ft | 62 kts | 169° |
| 2026-05-07 00:37 | 41.24110 | -8.67937 | 221 ft | 55 kts | 168° |
| 2026-05-07 00:37 | 41.23889 | -8.67844 | 228 ft | 0 kts | 118° |
| 2026-05-07 00:37 | 41.23875 | -8.67754 | 224 ft | 18 kts | 93° |
| 2026-05-07 00:37 | 41.23938 | -8.67548 | 231 ft | 31 kts | 77° |
| 2026-05-07 00:38 | 41.23955 | -8.67429 | 239 ft | 8 kts | 66° |
| 2026-05-07 00:38 | 41.23998 | -8.67418 | 238 ft | 8 kts | 1° |
| 2026-05-07 00:38 | 41.24078 | -8.67434 | 231 ft | 15 kts | 343° |
| 2026-05-07 00:38 | 41.24179 | -8.67504 | 228 ft | 6 kts | 318° |
| 2026-05-07 00:39 | 41.24179 | -8.67505 | 228 ft | 0 kts | 318° |
| 2026-05-07 00:39 | 41.24190 | -8.67517 | 227 ft | 7 kts | 318° |
| 2026-05-07 00:39 | 41.24239 | -8.67594 | 228 ft | 15 kts | 308° |
| 2026-05-07 00:39 | 41.24332 | -8.67711 | 222 ft | 21 kts | 336° |
| 2026-05-07 00:40 | 41.24481 | -8.67754 | 216 ft | 24 kts | 348° |
| 2026-05-07 00:40 | 41.24661 | -8.67804 | 217 ft | 29 kts | 348° |
| 2026-05-07 00:40 | 41.24822 | -8.67927 | 214 ft | 28 kts | 307° |
| 2026-05-07 00:40 | 41.24907 | -8.68111 | 213 ft | 19 kts | 308° |
| 2026-05-07 00:41 | 41.24996 | -8.68182 | 208 ft | 4 kts | 298° |
| 2026-05-07 00:41 | 41.24981 | -8.68201 | 204 ft | 1 kts | 217° |
| 2026-05-07 00:41 | 41.24967 | -8.68197 | 207 ft | 4 kts | 176° |
| 2026-05-07 00:41 | 41.24849 | -8.68174 | 210 ft | 28 kts | 185° |
| 2026-05-07 00:42 | 41.24616 | -8.68259 | 209 ft | 41 kts | 198° |
| 2026-05-07 00:42 | 41.24332 | -8.68243 | 221 ft | 43 kts | 169° |
| 2026-05-07 00:42 | 41.24033 | -8.68165 | 221 ft | 45 kts | 169° |
| 2026-05-07 00:42 | 41.23768 | -8.68099 | 226 ft | 20 kts | 178° |
| 2026-05-07 00:43 | 41.23716 | -8.68174 | 229 ft | 11 kts | 256° |
| 2026-05-07 00:43 | 41.23717 | -8.68317 | 226 ft | 20 kts | 281° |
| 2026-05-07 00:43 | 41.23761 | -8.68429 | 229 ft | 10 kts | 262° |
| 2026-05-07 00:43 | 41.23746 | -8.68521 | 223 ft | 0 kts | 261° |